Schedule Details


Flight Number: CTN631
Departure: Zemunik (LDZD) at 06:55
Arrival: Franjo Tudman (LDZA) at 07:35
Route: ALANU L868 KULEN M986 KOTOR

Weather Information
LDZD 221530Z 16014KT 9999 FEW040 22/13 Q1017 NOSIG
LDZA 221530Z 21005KT CAVOK 19/11 Q1016 NOSIG
Schedule Frequency

Route Map